createdAt,value
2023-12-23T00:00:14.543Z,3.69
2023-12-23T00:02:41.248Z,3.72
2023-12-23T00:05:13.284Z,3.75
2023-12-23T00:07:40.302Z,3.71
2023-12-23T00:10:07.961Z,3.75
2023-12-23T00:12:34.844Z,3.87
2023-12-23T00:15:01.806Z,3.81
2023-12-23T00:17:31.128Z,3.82
2023-12-23T00:19:58.246Z,3.76
2023-12-23T00:22:25.167Z,3.86
2023-12-23T00:24:51.905Z,3.80
2023-12-23T00:27:18.910Z,3.85
2023-12-23T00:29:45.623Z,3.94
2023-12-23T00:32:12.369Z,3.80
2023-12-23T00:34:42.332Z,3.91
2023-12-23T00:37:09.136Z,3.96
2023-12-23T00:39:35.870Z,3.88
2023-12-23T00:42:02.608Z,3.98
2023-12-23T00:44:29.577Z,4.12
2023-12-23T00:46:56.487Z,3.96
2023-12-23T00:49:25.676Z,3.90
2023-12-23T00:51:52.466Z,3.93
2023-12-23T00:54:19.171Z,3.90
2023-12-23T00:56:45.994Z,4.07
2023-12-23T00:59:15.931Z,4.04
2023-12-23T01:01:45.723Z,4.06
2023-12-23T01:04:12.610Z,4.09
2023-12-23T01:06:39.330Z,4.02
2023-12-23T01:09:06.515Z,4.02
2023-12-23T01:11:33.244Z,4.16
2023-12-23T01:14:01.463Z,4.09
2023-12-23T01:16:28.414Z,4.12
2023-12-23T01:18:58.069Z,3.98
2023-12-23T01:21:24.968Z,4.04
2023-12-23T01:23:51.750Z,3.97
2023-12-23T01:26:20.501Z,3.98
2023-12-23T01:28:47.272Z,4.02
2023-12-23T01:31:14.106Z,3.75
2023-12-23T01:33:40.928Z,3.79
2023-12-23T01:36:07.914Z,3.76
2023-12-23T01:38:34.716Z,3.69
2023-12-23T01:41:01.966Z,3.66
2023-12-23T01:43:28.816Z,3.69
2023-12-23T01:46:01.216Z,3.79
2023-12-23T01:48:43.297Z,3.74
2023-12-23T01:51:14.946Z,3.73
2023-12-23T01:53:44.830Z,3.60
2023-12-23T01:56:12.837Z,3.61
2023-12-23T01:58:39.662Z,3.70
2023-12-23T02:01:06.547Z,3.69
2023-12-23T02:03:33.391Z,3.61
2023-12-23T02:06:00.496Z,3.71
2023-12-23T02:08:27.350Z,3.66
2023-12-23T02:11:06.051Z,3.65
2023-12-23T02:13:45.825Z,3.62
2023-12-23T02:16:13.414Z,3.46
2023-12-23T02:18:40.318Z,3.21
2023-12-23T02:21:09.809Z,3.29
2023-12-23T02:23:36.500Z,3.36
2023-12-23T02:26:05.499Z,3.19
2023-12-23T02:28:34.147Z,3.20
2023-12-23T02:31:04.539Z,3.45
2023-12-23T02:33:31.472Z,3.48
2023-12-23T02:35:58.382Z,3.40
2023-12-23T02:38:25.215Z,3.26
2023-12-23T02:40:53.187Z,3.25
2023-12-23T02:43:20.045Z,3.19
2023-12-23T02:45:46.883Z,3.33
2023-12-23T02:48:13.663Z,3.13
2023-12-23T02:50:40.353Z,3.18
2023-12-23T02:53:07.303Z,3.37
2023-12-23T02:55:33.982Z,3.21
2023-12-23T02:58:06.922Z,3.25
2023-12-23T03:00:33.577Z,3.40
2023-12-23T03:03:00.467Z,3.19
2023-12-23T03:05:27.409Z,2.89
2023-12-23T03:07:59.402Z,3.08
2023-12-23T03:10:26.565Z,3.11
2023-12-23T03:13:02.596Z,2.89
2023-12-23T03:15:32.150Z,2.84
2023-12-23T03:17:59.043Z,2.97
2023-12-23T03:20:25.927Z,2.98
2023-12-23T03:22:53.230Z,3.07
2023-12-23T03:25:22.251Z,2.82
2023-12-23T03:27:51.736Z,2.92
2023-12-23T03:30:18.486Z,2.76
2023-12-23T03:32:45.585Z,2.90
2023-12-23T03:35:13.535Z,2.77
2023-12-23T03:37:40.426Z,2.95
2023-12-23T03:40:10.589Z,2.93
2023-12-23T03:42:37.679Z,2.95
2023-12-23T03:45:04.652Z,2.76
2023-12-23T03:47:31.410Z,2.80
2023-12-23T03:49:58.164Z,2.59
2023-12-23T03:52:27.194Z,2.70
2023-12-23T03:54:56.281Z,2.58
2023-12-23T03:57:24.198Z,2.55
2023-12-23T03:59:51.063Z,2.57
2023-12-23T04:02:18.678Z,2.54
2023-12-23T04:04:45.541Z,2.56
2023-12-23T04:07:12.329Z,2.48
2023-12-23T04:09:39.003Z,2.54
2023-12-23T04:12:08.904Z,2.55
2023-12-23T04:14:35.651Z,2.59
2023-12-23T04:17:02.469Z,2.60
2023-12-23T04:19:29.325Z,2.78
2023-12-23T04:21:56.033Z,2.85
2023-12-23T04:24:22.938Z,2.83
2023-12-23T04:26:49.630Z,2.78
2023-12-23T04:29:16.528Z,2.97
2023-12-23T04:31:43.305Z,2.98
2023-12-23T04:34:10.281Z,2.87
2023-12-23T04:36:37.380Z,2.86
2023-12-23T04:39:04.209Z,2.84
2023-12-23T04:41:30.826Z,2.87
2023-12-23T04:44:00.182Z,2.77
2023-12-23T04:46:27.131Z,2.90
2023-12-23T04:48:58.073Z,3.02
2023-12-23T04:51:24.850Z,2.90
2023-12-23T04:53:51.735Z,3.05
2023-12-23T04:56:23.463Z,3.03
2023-12-23T04:58:50.416Z,2.93
2023-12-23T05:01:17.151Z,2.81
2023-12-23T05:03:43.875Z,2.87
2023-12-23T05:06:10.611Z,3.00
2023-12-23T05:08:39.367Z,3.01
2023-12-23T05:11:06.098Z,3.08
2023-12-23T05:13:32.832Z,3.14
2023-12-23T05:15:59.777Z,3.08
2023-12-23T05:18:26.493Z,3.11
2023-12-23T05:20:53.438Z,2.79
2023-12-23T05:23:20.123Z,2.92
2023-12-23T05:25:46.828Z,2.80
2023-12-23T05:28:13.566Z,2.69
2023-12-23T05:30:40.345Z,2.64
2023-12-23T05:33:07.178Z,2.50
2023-12-23T05:35:33.956Z,2.50
2023-12-23T05:38:04.151Z,2.47
2023-12-23T05:40:31.633Z,2.39
2023-12-23T05:42:58.396Z,2.50
2023-12-23T05:45:25.016Z,2.43
2023-12-23T05:47:51.872Z,2.48
2023-12-23T05:50:18.861Z,2.51
2023-12-23T05:52:45.700Z,2.39
2023-12-23T05:55:12.640Z,2.33
2023-12-23T05:57:39.388Z,2.41
2023-12-23T06:00:09.289Z,2.49
2023-12-23T06:02:37.386Z,2.40
2023-12-23T06:05:04.248Z,2.52
2023-12-23T06:07:31.313Z,2.57
2023-12-23T06:09:59.832Z,2.55
2023-12-23T06:12:26.731Z,2.55
2023-12-23T06:14:53.450Z,2.62
2023-12-23T06:17:20.470Z,2.52
2023-12-23T06:19:47.503Z,2.67
2023-12-23T06:22:14.174Z,2.75
2023-12-23T06:24:40.914Z,2.81
2023-12-23T06:27:07.588Z,2.79
2023-12-23T06:29:34.299Z,2.70
2023-12-23T06:32:01.038Z,2.80
2023-12-23T06:34:27.995Z,2.60
2023-12-23T06:36:54.855Z,2.74
2023-12-23T06:39:21.853Z,2.84
2023-12-23T06:41:48.654Z,2.64
2023-12-23T06:44:15.594Z,2.76
2023-12-23T06:46:42.573Z,2.73
2023-12-23T06:49:09.548Z,2.76
2023-12-23T06:51:36.490Z,2.74
2023-12-23T06:54:03.348Z,2.64
2023-12-23T06:56:30.069Z,2.90
2023-12-23T06:58:56.772Z,2.71
2023-12-23T07:01:25.358Z,2.88
2023-12-23T07:03:54.301Z,2.84
2023-12-23T07:06:24.054Z,2.91
2023-12-23T07:08:51.009Z,2.89
2023-12-23T07:11:17.931Z,2.95
2023-12-23T07:13:44.609Z,3.05
2023-12-23T07:16:11.331Z,3.12
2023-12-23T07:18:38.379Z,3.57
2023-12-23T07:21:05.329Z,3.96
2023-12-23T07:23:32.072Z,4.57
2023-12-23T07:25:58.899Z,5.23
2023-12-23T07:28:26.024Z,5.57
2023-12-23T07:30:55.431Z,6.11
2023-12-23T07:33:22.921Z,6.37
2023-12-23T07:35:49.758Z,5.94
2023-12-23T07:38:19.322Z,5.27
2023-12-23T07:40:46.191Z,5.01
2023-12-23T07:43:13.070Z,4.85
2023-12-23T07:45:39.790Z,4.81
2023-12-23T07:48:06.970Z,4.74
2023-12-23T07:50:33.780Z,4.83
2023-12-23T07:53:00.817Z,4.94
2023-12-23T07:55:27.636Z,4.90
2023-12-23T07:57:54.281Z,4.75
2023-12-23T08:00:21.302Z,4.58
2023-12-23T08:02:48.172Z,4.44
2023-12-23T08:05:17.024Z,4.48
2023-12-23T08:07:44.352Z,4.49
2023-12-23T08:10:11.206Z,4.67
2023-12-23T08:12:37.870Z,4.60
2023-12-23T08:15:05.254Z,4.50
2023-12-23T08:17:32.047Z,4.34
2023-12-23T08:19:58.836Z,4.39
2023-12-23T08:22:25.517Z,4.21
2023-12-23T08:24:54.966Z,4.11
2023-12-23T08:27:21.771Z,3.92
2023-12-23T08:29:48.698Z,4.17
2023-12-23T08:32:15.421Z,5.52
2023-12-23T08:34:42.356Z,6.57
2023-12-23T08:37:09.083Z,6.79
2023-12-23T08:39:38.231Z,7.22
2023-12-23T08:42:07.673Z,8.03
2023-12-23T08:44:34.427Z,8.54
2023-12-23T08:47:01.092Z,8.58
2023-12-23T08:49:27.884Z,9.88
2023-12-23T08:51:54.557Z,9.25
2023-12-23T08:54:24.383Z,10.19
2023-12-23T08:56:51.320Z,10.00
2023-12-23T08:59:18.046Z,10.25
2023-12-23T09:01:45.106Z,12.93
2023-12-23T09:04:11.860Z,10.42
2023-12-23T09:06:38.720Z,9.91
2023-12-23T09:09:05.596Z,11.06
2023-12-23T09:11:32.575Z,10.39
2023-12-23T09:13:59.359Z,9.15
2023-12-23T09:16:26.068Z,8.19
2023-12-23T09:18:52.834Z,8.47
2023-12-23T09:21:19.560Z,8.38
2023-12-23T09:23:47.810Z,7.74
2023-12-23T09:26:14.511Z,7.79
2023-12-23T09:28:41.245Z,7.23
2023-12-23T09:31:07.920Z,7.84
2023-12-23T09:33:34.820Z,7.70
2023-12-23T09:36:01.549Z,7.86
2023-12-23T09:38:28.419Z,7.79
2023-12-23T09:40:55.592Z,7.62
2023-12-23T09:43:22.683Z,7.20
2023-12-23T09:45:53.499Z,6.66
2023-12-23T09:48:20.555Z,7.17
2023-12-23T09:50:48.904Z,7.09
2023-12-23T09:53:15.670Z,7.17
2023-12-23T09:55:45.884Z,6.51
2023-12-23T09:58:12.795Z,6.60
2023-12-23T10:00:42.329Z,6.54
2023-12-23T10:03:09.209Z,6.46
2023-12-23T10:05:45.000Z,6.26
2023-12-23T10:08:15.113Z,6.34
2023-12-23T10:10:41.937Z,6.07
2023-12-23T10:13:08.833Z,6.23
2023-12-23T10:15:36.922Z,6.08
2023-12-23T10:18:03.916Z,6.21
2023-12-23T10:20:32.160Z,5.96
2023-12-23T10:22:59.440Z,5.80
2023-12-23T10:25:26.281Z,5.94
2023-12-23T10:27:58.917Z,6.00
2023-12-23T10:30:26.291Z,5.90
2023-12-23T10:33:03.106Z,5.78
2023-12-23T10:35:33.416Z,5.64
2023-12-23T10:38:03.506Z,5.44
2023-12-23T10:40:30.360Z,5.45
2023-12-23T10:42:58.642Z,5.35
2023-12-23T10:45:25.933Z,5.22
2023-12-23T10:47:53.814Z,5.40
2023-12-23T10:50:24.091Z,5.15
2023-12-23T10:52:56.536Z,5.38
2023-12-23T10:55:25.031Z,5.60
2023-12-23T10:57:54.993Z,5.50
2023-12-23T11:00:21.703Z,5.46
2023-12-23T11:02:53.064Z,5.61
2023-12-23T11:05:21.590Z,5.59
2023-12-23T11:07:53.739Z,5.40
2023-12-23T11:10:25.736Z,5.25
2023-12-23T11:12:52.899Z,5.57
2023-12-23T11:15:22.512Z,5.46
2023-12-23T11:17:49.374Z,5.62
2023-12-23T11:20:34.859Z,5.46
2023-12-23T11:23:21.916Z,5.50
2023-12-23T11:25:48.743Z,5.41
2023-12-23T11:28:15.670Z,5.33
2023-12-23T11:30:57.563Z,5.53
2023-12-23T11:33:26.965Z,5.37
2023-12-23T11:35:59.781Z,5.38
2023-12-23T11:38:29.325Z,5.36
2023-12-23T11:40:56.555Z,5.23
2023-12-23T11:43:24.423Z,5.23
2023-12-23T11:45:51.582Z,5.15
2023-12-23T11:48:22.885Z,5.43
2023-12-23T11:50:51.494Z,5.43
2023-12-23T11:53:18.358Z,5.40
2023-12-23T11:55:45.949Z,5.46
2023-12-23T11:58:13.810Z,5.31
2023-12-23T12:00:40.733Z,5.35
2023-12-23T12:03:07.420Z,5.45
2023-12-23T12:05:34.206Z,5.27
2023-12-23T12:08:04.369Z,5.28
2023-12-23T12:10:31.325Z,5.32
2023-12-23T12:12:58.110Z,5.27
2023-12-23T12:15:24.956Z,5.19
2023-12-23T12:17:52.898Z,5.29
2023-12-23T12:20:21.542Z,5.44
2023-12-23T12:22:49.253Z,5.15
2023-12-23T12:25:16.803Z,5.35
2023-12-23T12:27:43.729Z,5.37
2023-12-23T12:30:12.101Z,5.15
2023-12-23T12:32:44.809Z,5.30
2023-12-23T12:35:12.570Z,5.33
2023-12-23T12:37:43.002Z,5.12
2023-12-23T12:40:13.855Z,5.03
2023-12-23T12:42:50.238Z,4.89
2023-12-23T12:45:17.446Z,4.82
2023-12-23T12:47:44.249Z,5.01
2023-12-23T12:50:11.101Z,4.90
2023-12-23T12:52:37.786Z,4.96
2023-12-23T12:55:05.313Z,4.79
2023-12-23T12:57:31.963Z,5.03
2023-12-23T12:59:58.777Z,4.78
2023-12-23T13:02:25.768Z,4.70
2023-12-23T13:04:52.648Z,4.81
2023-12-23T13:07:19.373Z,4.56
2023-12-23T13:09:46.260Z,4.62
2023-12-23T13:12:13.016Z,4.51
2023-12-23T13:14:39.795Z,4.42
2023-12-23T13:17:06.783Z,4.44
2023-12-23T13:19:33.729Z,4.40
2023-12-23T13:22:00.416Z,4.37
2023-12-23T13:24:27.226Z,4.53
2023-12-23T13:26:53.899Z,4.32
2023-12-23T13:29:21.854Z,4.12
2023-12-23T13:31:48.661Z,4.27
2023-12-23T13:34:15.468Z,4.34
2023-12-23T13:36:42.371Z,4.33
2023-12-23T13:39:09.315Z,4.13
2023-12-23T13:41:36.059Z,4.30
2023-12-23T13:44:02.810Z,4.08
2023-12-23T13:46:29.541Z,4.18
2023-12-23T13:48:56.328Z,4.23
2023-12-23T13:51:24.220Z,4.22
2023-12-23T13:53:51.379Z,4.13
2023-12-23T13:56:18.306Z,3.87
2023-12-23T13:58:44.990Z,3.96
2023-12-23T14:01:11.760Z,4.04
2023-12-23T14:03:38.510Z,3.98
2023-12-23T14:06:05.703Z,4.06
2023-12-23T14:08:32.379Z,4.08
2023-12-23T14:11:04.749Z,4.01
2023-12-23T14:13:31.460Z,3.89
2023-12-23T14:15:59.643Z,3.91
2023-12-23T14:18:26.638Z,3.85
2023-12-23T14:20:53.400Z,3.73
2023-12-23T14:23:27.073Z,3.91
2023-12-23T14:25:53.976Z,3.86
2023-12-23T14:28:20.651Z,3.85
2023-12-23T14:30:47.412Z,3.74
2023-12-23T14:33:14.257Z,3.76
2023-12-23T14:35:41.168Z,3.79
2023-12-23T14:38:07.944Z,3.71
2023-12-23T14:40:37.389Z,3.63
2023-12-23T14:43:04.249Z,3.59
2023-12-23T14:45:31.104Z,3.47
2023-12-23T14:47:57.864Z,3.50
2023-12-23T14:50:24.643Z,3.59
2023-12-23T14:52:51.736Z,3.50
2023-12-23T14:55:18.613Z,3.45
2023-12-23T14:57:45.364Z,3.53
2023-12-23T15:00:12.990Z,3.48
2023-12-23T15:02:40.819Z,3.51
2023-12-23T15:05:07.985Z,3.64
2023-12-23T15:07:34.693Z,3.58
2023-12-23T15:10:01.651Z,3.68
2023-12-23T15:12:31.407Z,3.53
2023-12-23T15:14:58.156Z,3.36
2023-12-23T15:17:24.930Z,3.35
2023-12-23T15:19:51.716Z,3.35
2023-12-23T15:22:18.402Z,3.05
2023-12-23T15:24:47.336Z,3.20
2023-12-23T15:27:15.221Z,3.27
2023-12-23T15:29:41.999Z,3.28
2023-12-23T15:32:08.713Z,3.25
2023-12-23T15:34:35.432Z,3.27
2023-12-23T15:37:02.161Z,3.30
2023-12-23T15:39:28.943Z,3.17
2023-12-23T15:41:55.785Z,3.16
2023-12-23T15:44:22.694Z,3.20
2023-12-23T15:46:49.571Z,3.07
2023-12-23T15:49:16.589Z,3.10
2023-12-23T15:51:43.436Z,3.07
2023-12-23T15:54:13.532Z,3.11
2023-12-23T15:56:40.516Z,3.06
2023-12-23T15:59:10.486Z,2.84
2023-12-23T16:01:37.421Z,2.66
2023-12-23T16:04:04.449Z,2.51
2023-12-23T16:06:31.386Z,2.49
2023-12-23T16:08:58.084Z,2.58
2023-12-23T16:11:25.049Z,2.30
2023-12-23T16:13:51.952Z,2.42
2023-12-23T16:16:18.750Z,2.46
2023-12-23T16:18:45.721Z,2.46
2023-12-23T16:21:12.657Z,2.34
2023-12-23T16:23:39.749Z,2.45
2023-12-23T16:26:13.767Z,2.51
2023-12-23T16:28:40.413Z,2.48
2023-12-23T16:31:07.208Z,2.27
2023-12-23T16:33:34.122Z,2.30
2023-12-23T16:36:00.844Z,2.06
2023-12-23T16:38:27.570Z,2.13
2023-12-23T16:40:56.153Z,2.11
2023-12-23T16:43:22.822Z,1.95
2023-12-23T16:45:49.477Z,2.11
2023-12-23T16:48:16.302Z,2.18
2023-12-23T16:50:44.102Z,1.87
2023-12-23T16:53:11.084Z,1.88
2023-12-23T16:55:37.744Z,1.76
2023-12-23T16:58:04.688Z,2.01
2023-12-23T17:00:31.430Z,1.90
2023-12-23T17:02:58.231Z,1.77
2023-12-23T17:05:25.002Z,1.94
2023-12-23T17:07:54.923Z,1.76
2023-12-23T17:10:21.574Z,1.77
2023-12-23T17:12:48.251Z,1.73
2023-12-23T17:15:15.076Z,1.55
2023-12-23T17:17:42.183Z,1.73
2023-12-23T17:20:10.330Z,1.71
2023-12-23T17:22:39.549Z,1.72
2023-12-23T17:25:06.616Z,1.55
2023-12-23T17:27:33.517Z,1.68
2023-12-23T17:30:00.463Z,1.74
2023-12-23T17:32:27.396Z,1.67
2023-12-23T17:34:56.128Z,1.63
2023-12-23T17:37:22.970Z,1.52
2023-12-23T17:39:52.357Z,1.48
2023-12-23T17:42:18.992Z,1.64
2023-12-23T17:44:46.839Z,1.53
2023-12-23T17:47:13.673Z,1.64
2023-12-23T17:49:40.370Z,1.43
2023-12-23T17:52:08.492Z,1.60
2023-12-23T17:54:35.245Z,1.60
2023-12-23T17:57:01.999Z,1.52
2023-12-23T17:59:28.755Z,1.38
2023-12-23T18:01:55.552Z,1.56
2023-12-23T18:04:25.306Z,1.50
2023-12-23T18:06:51.965Z,1.18
2023-12-23T18:09:21.594Z,1.52
2023-12-23T18:11:48.334Z,1.52
2023-12-23T18:14:15.111Z,1.51
2023-12-23T18:16:43.216Z,1.46
2023-12-23T18:19:10.172Z,1.34
2023-12-23T18:21:37.055Z,1.45
2023-12-23T18:24:06.801Z,1.45
2023-12-23T18:26:33.626Z,1.44
2023-12-23T18:29:00.379Z,1.44
2023-12-23T18:31:27.329Z,1.38
2023-12-23T18:33:54.434Z,1.39
2023-12-23T18:36:23.400Z,1.48
2023-12-23T18:38:50.115Z,1.40
2023-12-23T18:41:17.054Z,1.46
2023-12-23T18:43:43.960Z,1.47
2023-12-23T18:46:12.262Z,1.55
2023-12-23T18:48:43.405Z,1.52
2023-12-23T18:51:10.369Z,1.34
2023-12-23T18:53:37.747Z,1.37
2023-12-23T18:56:04.774Z,1.34
2023-12-23T18:58:31.708Z,1.29
2023-12-23T19:00:58.489Z,1.35
2023-12-23T19:03:26.973Z,1.32
2023-12-23T19:05:53.795Z,1.29
2023-12-23T19:08:20.563Z,1.28
2023-12-23T19:10:47.305Z,1.35
2023-12-23T19:13:14.117Z,1.39
2023-12-23T19:15:40.858Z,1.37
2023-12-23T19:18:07.983Z,1.28
2023-12-23T19:20:34.864Z,1.28
2023-12-23T19:23:02.097Z,1.31
2023-12-23T19:25:30.581Z,1.34
2023-12-23T19:27:57.391Z,1.08
2023-12-23T19:30:24.333Z,1.16
2023-12-23T19:32:51.601Z,1.21
2023-12-23T19:35:18.764Z,1.28
2023-12-23T19:37:45.738Z,1.29
2023-12-23T19:40:13.094Z,1.18
2023-12-23T19:42:39.929Z,1.28
2023-12-23T19:45:08.393Z,1.25
2023-12-23T19:47:35.275Z,1.24
2023-12-23T19:50:02.144Z,1.13
2023-12-23T19:52:28.801Z,1.24
2023-12-23T19:54:55.646Z,1.20
2023-12-23T19:57:22.588Z,1.15
2023-12-23T19:59:49.347Z,1.27
2023-12-23T20:02:16.251Z,1.25
2023-12-23T20:04:43.030Z,1.22
2023-12-23T20:07:09.975Z,1.26
2023-12-23T20:09:37.602Z,1.23
2023-12-23T20:12:05.582Z,1.17
2023-12-23T20:14:34.264Z,1.15
2023-12-23T20:17:01.130Z,1.19
2023-12-23T20:19:28.022Z,1.16
2023-12-23T20:21:54.801Z,1.11
2023-12-23T20:24:21.706Z,1.16
2023-12-23T20:26:48.399Z,1.14
2023-12-23T20:29:15.386Z,1.13
2023-12-23T20:31:42.147Z,1.10
2023-12-23T20:34:08.967Z,1.08
2023-12-23T20:36:43.148Z,1.24
2023-12-23T20:39:10.305Z,1.25
2023-12-23T20:41:42.435Z,1.20
2023-12-23T20:44:09.482Z,1.20
2023-12-23T20:46:36.259Z,1.29
2023-12-23T20:49:03.782Z,1.11
2023-12-23T20:51:32.378Z,1.18
2023-12-23T20:53:59.303Z,1.30
2023-12-23T20:56:28.963Z,1.35
2023-12-23T20:58:57.350Z,1.31
2023-12-23T21:01:26.670Z,1.30
2023-12-23T21:03:54.335Z,1.35
2023-12-23T21:06:21.213Z,1.37
2023-12-23T21:08:49.444Z,1.33
2023-12-23T21:11:17.438Z,1.38
2023-12-23T21:13:45.364Z,1.30
2023-12-23T21:16:12.143Z,1.20
2023-12-23T21:18:45.608Z,1.22
2023-12-23T21:21:13.490Z,1.20
2023-12-23T21:23:40.608Z,1.27
2023-12-23T21:26:23.448Z,1.31
2023-12-23T21:28:50.477Z,1.33
2023-12-23T21:31:19.670Z,1.34
2023-12-23T21:33:46.526Z,1.21
2023-12-23T21:36:13.458Z,1.30
2023-12-23T21:38:40.258Z,1.23
2023-12-23T21:41:07.062Z,1.22
2023-12-23T21:43:33.963Z,1.26
2023-12-23T21:46:00.853Z,1.33
2023-12-23T21:48:27.623Z,1.41
2023-12-23T21:50:54.449Z,1.52
2023-12-23T21:53:24.573Z,1.55
2023-12-23T21:55:51.798Z,1.46
2023-12-23T21:58:18.656Z,1.50
2023-12-23T22:00:45.415Z,1.50
2023-12-23T22:03:12.246Z,1.52
2023-12-23T22:05:39.040Z,1.44
2023-12-23T22:08:06.322Z,1.49
2023-12-23T22:10:33.038Z,1.47
2023-12-23T22:13:03.080Z,1.47
2023-12-23T22:15:29.835Z,1.43
2023-12-23T22:17:56.522Z,1.42
2023-12-23T22:20:26.192Z,1.40
2023-12-23T22:22:56.216Z,1.50
2023-12-23T22:25:23.128Z,1.54
2023-12-23T22:27:49.898Z,1.48
2023-12-23T22:30:17.235Z,1.56
2023-12-23T22:32:44.135Z,1.54
2023-12-23T22:35:10.976Z,1.56
2023-12-23T22:37:38.105Z,1.62
2023-12-23T22:40:05.460Z,1.60
2023-12-23T22:42:32.387Z,1.56
2023-12-23T22:44:59.213Z,1.61
2023-12-23T22:47:26.492Z,1.53
2023-12-23T22:49:53.238Z,1.49
2023-12-23T22:52:22.115Z,1.50
2023-12-23T22:54:50.962Z,1.49
2023-12-23T22:57:19.350Z,1.57
2023-12-23T22:59:46.294Z,1.60
2023-12-23T23:02:13.181Z,1.56
2023-12-23T23:04:42.953Z,1.55
2023-12-23T23:07:12.170Z,1.62
2023-12-23T23:09:39.821Z,1.60
2023-12-23T23:12:13.029Z,1.55
2023-12-23T23:14:39.784Z,1.56
2023-12-23T23:17:08.812Z,1.55
2023-12-23T23:19:35.852Z,1.56
2023-12-23T23:22:02.663Z,1.61
2023-12-23T23:24:29.324Z,1.52
2023-12-23T23:26:55.971Z,1.60
2023-12-23T23:29:22.851Z,1.59
2023-12-23T23:31:49.635Z,1.70
2023-12-23T23:34:16.635Z,1.64
2023-12-23T23:36:43.556Z,1.72
2023-12-23T23:39:10.329Z,1.70
2023-12-23T23:41:40.274Z,1.64
2023-12-23T23:44:08.532Z,1.82
2023-12-23T23:46:36.455Z,1.73
2023-12-23T23:49:03.104Z,1.71
2023-12-23T23:51:32.949Z,1.69
2023-12-23T23:53:59.760Z,1.87
2023-12-23T23:56:26.637Z,1.72
2023-12-23T23:58:53.830Z,1.74
